createdAt,value
2017-06-25T00:00:05.386Z,0
2017-06-25T00:01:06.643Z,0
2017-06-25T00:02:07.916Z,0
2017-06-25T00:03:09.177Z,0
2017-06-25T00:04:10.443Z,0
2017-06-25T00:05:11.753Z,0
2017-06-25T00:06:13.002Z,0
2017-06-25T00:07:14.275Z,0
2017-06-25T00:08:15.505Z,0
2017-06-25T00:09:16.884Z,0
2017-06-25T00:10:18.100Z,0
2017-06-25T00:11:19.422Z,0
2017-06-25T00:12:20.802Z,0
2017-06-25T00:13:22.093Z,0
2017-06-25T00:14:23.366Z,0
2017-06-25T00:15:24.737Z,0
2017-06-25T00:16:26.144Z,0
2017-06-25T00:17:27.417Z,0
2017-06-25T00:18:28.677Z,0
2017-06-25T00:19:29.936Z,0
2017-06-25T00:20:31.264Z,0
2017-06-25T00:21:32.570Z,0
2017-06-25T00:22:33.880Z,0
2017-06-25T00:23:35.123Z,0
2017-06-25T00:24:36.381Z,0
2017-06-25T00:25:37.639Z,0
2017-06-25T00:26:38.959Z,0
2017-06-25T00:27:40.181Z,0
2017-06-25T00:28:41.516Z,0
2017-06-25T00:29:42.856Z,0
2017-06-25T00:30:44.085Z,0
2017-06-25T00:31:45.377Z,0
2017-06-25T00:32:46.692Z,0
2017-06-25T00:33:47.964Z,0
2017-06-25T00:34:49.350Z,0
2017-06-25T00:35:50.625Z,0
2017-06-25T00:36:51.902Z,0
2017-06-25T00:37:53.250Z,0
2017-06-25T00:38:54.539Z,0
2017-06-25T00:39:55.834Z,0
2017-06-25T00:40:57.129Z,0
2017-06-25T00:41:58.349Z,0
2017-06-25T00:42:59.580Z,0
2017-06-25T00:44:00.842Z,0
2017-06-25T00:45:02.138Z,0
2017-06-25T00:46:03.478Z,0
2017-06-25T00:47:04.716Z,0
2017-06-25T00:48:05.965Z,0
2017-06-25T00:49:07.252Z,0
2017-06-25T00:50:08.516Z,0
2017-06-25T00:51:09.849Z,0
2017-06-25T00:52:11.116Z,0
2017-06-25T00:53:12.369Z,0
2017-06-25T00:54:13.615Z,0
2017-06-25T00:55:14.909Z,0
2017-06-25T00:56:16.158Z,0
2017-06-25T00:57:17.398Z,0
2017-06-25T00:58:18.642Z,0
2017-06-25T00:59:19.906Z,0
2017-06-25T01:00:21.158Z,0
2017-06-25T01:01:22.398Z,0
2017-06-25T01:02:23.653Z,0
2017-06-25T01:03:24.927Z,0
2017-06-25T01:04:26.175Z,0
2017-06-25T01:05:27.513Z,0
2017-06-25T01:06:28.767Z,0
2017-06-25T01:07:30.020Z,0
2017-06-25T01:08:31.291Z,0
2017-06-25T01:09:32.558Z,0
2017-06-25T01:10:33.902Z,0
2017-06-25T01:11:35.258Z,0
2017-06-25T01:12:36.511Z,0
2017-06-25T01:13:37.775Z,0
2017-06-25T01:14:39.041Z,0
2017-06-25T01:15:40.298Z,0
2017-06-25T01:16:41.578Z,0
2017-06-25T01:17:42.858Z,0
2017-06-25T01:18:44.107Z,0
2017-06-25T01:19:45.543Z,0
2017-06-25T01:20:46.809Z,0
2017-06-25T01:21:48.106Z,0
2017-06-25T01:22:49.377Z,0
2017-06-25T01:23:50.612Z,0
2017-06-25T01:24:51.897Z,0
2017-06-25T01:25:53.138Z,0
2017-06-25T01:26:54.405Z,0
2017-06-25T01:27:55.704Z,0
2017-06-25T01:28:57.013Z,0
2017-06-25T01:29:58.275Z,0
2017-06-25T01:30:59.517Z,0
2017-06-25T01:32:00.854Z,0
2017-06-25T01:33:02.129Z,0
2017-06-25T01:34:03.409Z,0
2017-06-25T01:35:04.691Z,0
2017-06-25T01:36:05.959Z,0
2017-06-25T01:37:07.221Z,0
2017-06-25T01:38:08.593Z,0
2017-06-25T01:39:09.830Z,0
2017-06-25T01:40:11.085Z,0
2017-06-25T01:41:12.327Z,0
2017-06-25T01:42:13.616Z,0
2017-06-25T01:43:14.934Z,0
2017-06-25T01:44:16.190Z,0
2017-06-25T01:45:17.478Z,0
2017-06-25T01:46:18.718Z,0
2017-06-25T01:47:19.979Z,0
2017-06-25T01:48:21.229Z,0
2017-06-25T01:49:22.497Z,0
2017-06-25T01:50:23.789Z,0
2017-06-25T01:51:25.202Z,0
2017-06-25T01:52:26.450Z,0
2017-06-25T01:53:27.692Z,0
2017-06-25T01:54:29.144Z,0
2017-06-25T01:55:30.569Z,0
2017-06-25T01:56:31.749Z,0
2017-06-25T01:57:33.000Z,0
2017-06-25T01:58:34.315Z,0
2017-06-25T01:59:35.598Z,0
2017-06-25T02:00:36.955Z,0
2017-06-25T02:01:38.220Z,0
2017-06-25T02:02:39.591Z,0
2017-06-25T02:03:40.826Z,0
2017-06-25T02:04:42.107Z,0
2017-06-25T02:05:43.434Z,0
2017-06-25T02:06:44.757Z,0
2017-06-25T02:07:46.042Z,0
2017-06-25T02:08:47.333Z,0
2017-06-25T02:09:48.590Z,0
2017-06-25T02:10:49.869Z,0
2017-06-25T02:11:51.113Z,0
2017-06-25T02:12:52.369Z,0
2017-06-25T02:13:53.677Z,0
2017-06-25T02:14:55.034Z,0
2017-06-25T02:15:56.320Z,0
2017-06-25T02:16:57.609Z,0
2017-06-25T02:17:58.899Z,0
2017-06-25T02:19:00.129Z,0
2017-06-25T02:20:01.455Z,0
2017-06-25T02:21:02.707Z,0
2017-06-25T02:22:04.254Z,0
2017-06-25T02:23:05.916Z,0
2017-06-25T02:24:07.474Z,0
2017-06-25T02:25:09.824Z,0
2017-06-25T02:26:11.241Z,0
2017-06-25T02:27:12.543Z,0
2017-06-25T02:28:14.700Z,0
2017-06-25T02:29:15.899Z,0
2017-06-25T02:30:17.370Z,0
2017-06-25T02:31:18.619Z,0
2017-06-25T02:32:19.886Z,0
2017-06-25T02:33:21.153Z,0
2017-06-25T02:34:22.420Z,0
2017-06-25T02:35:23.765Z,0
2017-06-25T02:36:25.230Z,0
2017-06-25T02:37:26.385Z,0
2017-06-25T02:38:27.759Z,0
2017-06-25T02:39:29.073Z,0
2017-06-25T02:40:30.352Z,0
2017-06-25T02:41:31.640Z,0
2017-06-25T02:42:33.038Z,0
2017-06-25T02:43:34.201Z,0
2017-06-25T02:44:35.578Z,0
2017-06-25T02:45:36.839Z,0
2017-06-25T02:46:38.115Z,0
2017-06-25T02:47:39.398Z,0
2017-06-25T02:48:40.637Z,0
2017-06-25T02:49:41.930Z,0
2017-06-25T02:50:43.277Z,0
2017-06-25T02:51:44.552Z,0
2017-06-25T02:52:45.819Z,0
2017-06-25T02:53:47.094Z,0
2017-06-25T02:54:48.393Z,0
2017-06-25T02:55:49.631Z,0
2017-06-25T02:56:50.941Z,0
2017-06-25T02:57:52.198Z,0
2017-06-25T02:58:53.613Z,0
2017-06-25T02:59:54.884Z,0
2017-06-25T03:00:56.121Z,0
2017-06-25T03:01:57.380Z,0
2017-06-25T03:02:58.655Z,0
2017-06-25T03:03:59.916Z,0
2017-06-25T03:05:01.173Z,0
2017-06-25T03:06:02.434Z,0
2017-06-25T03:07:03.753Z,0
2017-06-25T03:08:05.064Z,0
2017-06-25T03:09:06.295Z,0
2017-06-25T03:10:07.594Z,0
2017-06-25T03:11:08.855Z,0
2017-06-25T03:12:10.137Z,0
2017-06-25T03:13:11.432Z,0
2017-06-25T03:14:12.656Z,0
2017-06-25T03:15:13.919Z,0
2017-06-25T03:16:15.196Z,0
2017-06-25T03:17:16.436Z,0
2017-06-25T03:18:17.686Z,0
2017-06-25T03:19:18.922Z,0
2017-06-25T03:20:20.186Z,0
2017-06-25T03:21:21.499Z,5
2017-06-25T03:22:22.757Z,5
2017-06-25T03:23:24.055Z,5
2017-06-25T03:24:25.374Z,5
2017-06-25T03:25:26.725Z,5
2017-06-25T03:26:27.930Z,5
2017-06-25T03:27:29.209Z,5
2017-06-25T03:28:30.494Z,5
2017-06-25T03:29:31.772Z,5
2017-06-25T03:30:33.141Z,5
2017-06-25T03:31:34.416Z,5
2017-06-25T03:32:35.696Z,5
2017-06-25T03:33:37.011Z,5
2017-06-25T03:34:38.291Z,5
2017-06-25T03:35:39.528Z,5
2017-06-25T03:36:40.789Z,10
2017-06-25T03:37:42.118Z,5
2017-06-25T03:38:43.366Z,5
2017-06-25T03:39:44.620Z,10
2017-06-25T03:40:45.875Z,10
2017-06-25T03:41:47.309Z,10
2017-06-25T03:42:48.649Z,10
2017-06-25T03:43:49.942Z,10
2017-06-25T03:44:51.191Z,10
2017-06-25T03:45:52.454Z,10
2017-06-25T03:46:53.778Z,5
2017-06-25T03:47:55.086Z,10
2017-06-25T03:48:56.364Z,10
2017-06-25T03:49:57.630Z,10
2017-06-25T03:50:58.903Z,10
2017-06-25T03:52:00.168Z,10
2017-06-25T03:53:01.423Z,10
2017-06-25T03:54:02.691Z,10
2017-06-25T03:55:03.941Z,10
2017-06-25T03:56:05.248Z,10
2017-06-25T03:57:06.500Z,10
2017-06-25T03:58:07.794Z,10
2017-06-25T03:59:09.068Z,15
2017-06-25T04:00:10.338Z,15
2017-06-25T04:01:11.603Z,15
2017-06-25T04:02:12.894Z,15
2017-06-25T04:03:14.182Z,20
2017-06-25T04:04:15.511Z,20
2017-06-25T04:05:16.776Z,15
2017-06-25T04:06:18.030Z,20
2017-06-25T04:07:19.303Z,20
2017-06-25T04:08:20.646Z,15
2017-06-25T04:09:21.896Z,15
2017-06-25T04:10:23.174Z,10
2017-06-25T04:11:24.423Z,10
2017-06-25T04:12:25.773Z,10
2017-06-25T04:13:27.023Z,10
2017-06-25T04:14:28.291Z,10
2017-06-25T04:15:29.557Z,10
2017-06-25T04:16:30.781Z,10
2017-06-25T04:17:32.040Z,10
2017-06-25T04:18:33.411Z,10
2017-06-25T04:19:34.672Z,10
2017-06-25T04:20:36.031Z,10
2017-06-25T04:21:37.280Z,15
2017-06-25T04:22:38.525Z,15
2017-06-25T04:23:39.784Z,20
2017-06-25T04:24:41.055Z,15
2017-06-25T04:25:42.355Z,20
2017-06-25T04:26:43.613Z,20
2017-06-25T04:27:44.860Z,25
2017-06-25T04:28:46.149Z,30
2017-06-25T04:29:47.494Z,35
2017-06-25T04:30:48.779Z,30
2017-06-25T04:31:50.044Z,25
2017-06-25T04:32:51.345Z,25
2017-06-25T04:33:52.610Z,25
2017-06-25T04:34:53.863Z,25
2017-06-25T04:35:55.142Z,20
2017-06-25T04:36:56.497Z,15
2017-06-25T04:37:57.754Z,15
2017-06-25T04:38:59.044Z,15
2017-06-25T04:40:00.269Z,15
2017-06-25T04:41:01.558Z,15
2017-06-25T04:42:02.812Z,15
2017-06-25T04:43:04.121Z,20
2017-06-25T04:44:05.380Z,20
2017-06-25T04:45:06.683Z,20
2017-06-25T04:46:07.939Z,25
2017-06-25T04:47:09.195Z,25
2017-06-25T04:48:10.445Z,30
2017-06-25T04:49:11.830Z,30
2017-06-25T04:50:13.087Z,35
2017-06-25T04:51:14.360Z,35
2017-06-25T04:52:15.695Z,35
2017-06-25T04:53:16.970Z,35
2017-06-25T04:54:18.205Z,30
2017-06-25T04:55:19.496Z,30
2017-06-25T04:56:20.726Z,35
2017-06-25T04:57:22.008Z,35
2017-06-25T04:58:23.278Z,40
2017-06-25T04:59:24.506Z,50
2017-06-25T05:00:25.777Z,50
2017-06-25T05:01:27.199Z,50
2017-06-25T05:02:28.445Z,50
2017-06-25T05:03:29.784Z,50
2017-06-25T05:04:31.067Z,55
2017-06-25T05:05:32.410Z,60
2017-06-25T05:06:33.704Z,60
2017-06-25T05:07:34.983Z,75
2017-06-25T05:08:36.293Z,70
2017-06-25T05:09:37.632Z,75
2017-06-25T05:10:38.871Z,65
2017-06-25T05:11:40.150Z,65
2017-06-25T05:12:41.408Z,55
2017-06-25T05:13:42.778Z,45
2017-06-25T05:14:44.057Z,40
2017-06-25T05:15:45.350Z,35
2017-06-25T05:16:46.622Z,35
2017-06-25T05:17:47.858Z,40
2017-06-25T05:18:49.115Z,45
2017-06-25T05:19:50.381Z,45
2017-06-25T05:20:51.658Z,50
2017-06-25T05:21:52.922Z,75
2017-06-25T05:22:54.170Z,70
2017-06-25T05:23:55.463Z,50
2017-06-25T05:24:56.764Z,45
2017-06-25T05:25:58.034Z,40
2017-06-25T05:26:59.334Z,45
2017-06-25T05:28:00.581Z,45
2017-06-25T05:29:01.848Z,55
2017-06-25T05:30:03.168Z,65
2017-06-25T05:31:04.455Z,65
2017-06-25T05:32:05.712Z,50
2017-06-25T05:33:07.014Z,50
2017-06-25T05:34:08.263Z,55
2017-06-25T05:35:09.564Z,45
2017-06-25T05:36:10.828Z,40
2017-06-25T05:37:12.107Z,45
2017-06-25T05:38:13.403Z,45
2017-06-25T05:39:14.676Z,50
2017-06-25T05:40:15.953Z,50
2017-06-25T05:41:17.202Z,50
2017-06-25T05:42:18.518Z,55
2017-06-25T05:43:19.793Z,55
2017-06-25T05:44:21.065Z,80
2017-06-25T05:45:22.336Z,85
2017-06-25T05:46:23.609Z,90
2017-06-25T05:47:24.924Z,115
2017-06-25T05:48:26.154Z,160
2017-06-25T05:49:27.488Z,185
2017-06-25T05:50:28.733Z,180
2017-06-25T05:51:30.036Z,160
2017-06-25T05:52:31.291Z,125
2017-06-25T05:53:32.634Z,120
2017-06-25T05:54:33.935Z,150
2017-06-25T05:55:35.195Z,130
2017-06-25T05:56:36.439Z,110
2017-06-25T05:57:37.735Z,110
2017-06-25T05:58:39.029Z,110
2017-06-25T05:59:40.264Z,120
2017-06-25T06:00:41.600Z,165
2017-06-25T06:01:42.866Z,175
2017-06-25T06:02:44.104Z,135
2017-06-25T06:03:45.423Z,150
2017-06-25T06:04:46.656Z,140
2017-06-25T06:05:47.904Z,170
2017-06-25T06:06:49.160Z,170
2017-06-25T06:07:50.445Z,135
2017-06-25T06:08:51.830Z,110
2017-06-25T06:09:53.123Z,115
2017-06-25T06:10:54.412Z,120
2017-06-25T06:11:55.683Z,140
2017-06-25T06:12:56.964Z,110
2017-06-25T06:13:58.215Z,105
2017-06-25T06:14:59.537Z,105
2017-06-25T06:16:00.802Z,130
2017-06-25T06:17:02.037Z,150
2017-06-25T06:18:03.333Z,215
2017-06-25T06:19:04.570Z,165
2017-06-25T06:20:05.870Z,190
2017-06-25T06:21:07.174Z,215
2017-06-25T06:22:08.405Z,285
2017-06-25T06:23:09.676Z,315
2017-06-25T06:24:10.971Z,320
2017-06-25T06:25:12.216Z,320
2017-06-25T06:26:13.509Z,320
2017-06-25T06:27:14.796Z,290
2017-06-25T06:28:16.083Z,280
2017-06-25T06:29:17.378Z,285
2017-06-25T06:30:18.727Z,260
2017-06-25T06:31:19.980Z,275
2017-06-25T06:32:21.237Z,275
2017-06-25T06:33:22.522Z,260
2017-06-25T06:34:23.841Z,270
2017-06-25T06:35:25.102Z,250
2017-06-25T06:36:26.351Z,210
2017-06-25T06:37:27.840Z,305
2017-06-25T06:38:29.139Z,335
2017-06-25T06:39:30.405Z,285
2017-06-25T06:40:31.736Z,390
2017-06-25T06:41:33.028Z,365
2017-06-25T06:42:34.297Z,360
2017-06-25T06:43:35.617Z,265
2017-06-25T06:44:36.903Z,185
2017-06-25T06:45:38.153Z,180
2017-06-25T06:46:39.430Z,195
2017-06-25T06:47:40.714Z,170
2017-06-25T06:48:41.971Z,135
2017-06-25T06:49:43.215Z,160
2017-06-25T06:50:44.490Z,155
2017-06-25T06:51:45.775Z,140
2017-06-25T06:52:47.076Z,220
2017-06-25T06:53:48.303Z,195
2017-06-25T06:54:49.610Z,105
2017-06-25T06:55:50.922Z,145
2017-06-25T06:56:52.210Z,145
2017-06-25T06:57:53.569Z,170
2017-06-25T06:58:54.976Z,215
2017-06-25T06:59:56.239Z,170
2017-06-25T07:00:57.506Z,210
2017-06-25T07:01:58.780Z,215
2017-06-25T07:03:00.115Z,260
2017-06-25T07:04:01.423Z,250
2017-06-25T07:05:02.723Z,315
2017-06-25T07:06:04.083Z,305
2017-06-25T07:07:05.353Z,285
2017-06-25T07:08:06.669Z,260
2017-06-25T07:09:07.890Z,250
2017-06-25T07:10:09.167Z,240
2017-06-25T07:11:10.430Z,255
2017-06-25T07:12:11.772Z,285
2017-06-25T07:13:13.054Z,320
2017-06-25T07:14:14.291Z,415
2017-06-25T07:15:15.584Z,505
2017-06-25T07:16:16.875Z,510
2017-06-25T07:17:18.124Z,340
2017-06-25T07:18:19.467Z,310
2017-06-25T07:19:20.718Z,250
2017-06-25T07:20:21.981Z,290
2017-06-25T07:21:23.330Z,250
2017-06-25T07:22:24.577Z,240
2017-06-25T07:23:25.886Z,235
2017-06-25T07:24:27.135Z,240
2017-06-25T07:25:28.421Z,290
2017-06-25T07:26:29.690Z,265
2017-06-25T07:27:31.000Z,350
2017-06-25T07:28:32.301Z,425
2017-06-25T07:29:33.609Z,360
2017-06-25T07:30:34.870Z,365
2017-06-25T07:31:36.207Z,250
2017-06-25T07:32:37.558Z,270
2017-06-25T07:33:38.804Z,230
2017-06-25T07:34:40.182Z,320
2017-06-25T07:35:41.481Z,280
2017-06-25T07:36:42.718Z,260
2017-06-25T07:37:43.975Z,250
2017-06-25T07:38:45.250Z,200
2017-06-25T07:39:46.515Z,200
2017-06-25T07:40:47.870Z,315
2017-06-25T07:41:49.179Z,315
2017-06-25T07:42:50.425Z,450
2017-06-25T07:43:51.795Z,425
2017-06-25T07:44:53.144Z,405
2017-06-25T07:45:54.412Z,320
2017-06-25T07:46:55.706Z,210
2017-06-25T07:47:57.113Z,175
2017-06-25T07:48:58.410Z,170
2017-06-25T07:49:59.741Z,225
2017-06-25T07:51:00.960Z,270
2017-06-25T07:52:02.253Z,345
2017-06-25T07:53:03.716Z,425
2017-06-25T07:54:04.969Z,440
2017-06-25T07:55:06.291Z,465
2017-06-25T07:56:07.619Z,570
2017-06-25T07:57:08.906Z,560
2017-06-25T07:58:10.283Z,475
2017-06-25T07:59:11.599Z,440
2017-06-25T08:00:12.842Z,415
2017-06-25T08:01:14.108Z,395
2017-06-25T08:02:15.448Z,470
2017-06-25T08:03:16.720Z,445
2017-06-25T08:04:17.959Z,435
2017-06-25T08:05:19.310Z,365
2017-06-25T08:06:20.594Z,265
2017-06-25T08:07:21.975Z,210
2017-06-25T08:08:23.248Z,210
2017-06-25T08:09:24.559Z,205
2017-06-25T08:10:25.935Z,175
2017-06-25T08:11:27.215Z,160
2017-06-25T08:12:28.522Z,145
2017-06-25T08:13:29.810Z,105
2017-06-25T08:14:31.101Z,75
2017-06-25T08:15:32.382Z,85
2017-06-25T08:16:33.682Z,85
2017-06-25T08:17:34.950Z,70
2017-06-25T08:18:36.239Z,70
2017-06-25T08:19:37.513Z,65
2017-06-25T08:20:38.794Z,70
2017-06-25T08:21:40.064Z,65
2017-06-25T08:22:41.323Z,65
2017-06-25T08:23:42.605Z,55
2017-06-25T08:24:43.904Z,75
2017-06-25T08:25:45.169Z,80
2017-06-25T08:26:46.470Z,100
2017-06-25T08:27:47.739Z,120
2017-06-25T08:28:49.008Z,145
2017-06-25T08:29:50.297Z,140
2017-06-25T08:30:51.548Z,160
2017-06-25T08:31:52.805Z,195
2017-06-25T08:32:54.079Z,185
2017-06-25T08:33:55.346Z,180
2017-06-25T08:34:56.616Z,175
2017-06-25T08:35:57.939Z,155
2017-06-25T08:36:59.210Z,140
2017-06-25T08:38:00.477Z,140
2017-06-25T08:39:01.844Z,145
2017-06-25T08:40:03.146Z,145
2017-06-25T08:41:04.432Z,145
2017-06-25T08:42:05.699Z,150
2017-06-25T08:43:06.974Z,145
2017-06-25T08:44:08.262Z,145
2017-06-25T08:45:09.560Z,170
2017-06-25T08:46:10.873Z,185
2017-06-25T08:47:12.105Z,200
2017-06-25T08:48:13.322Z,230
2017-06-25T08:49:14.589Z,295
2017-06-25T08:50:15.849Z,355
2017-06-25T08:51:17.173Z,430
2017-06-25T08:52:18.438Z,435
2017-06-25T08:53:19.737Z,385
2017-06-25T08:54:20.975Z,310
2017-06-25T08:55:22.306Z,265
2017-06-25T08:56:23.592Z,270
2017-06-25T08:57:24.872Z,300
2017-06-25T08:58:26.162Z,375
2017-06-25T08:59:27.447Z,560
2017-06-25T09:00:28.680Z,650
2017-06-25T09:01:29.953Z,715
2017-06-25T09:02:31.200Z,1640
2017-06-25T09:03:32.445Z,1845
2017-06-25T09:04:33.754Z,1320
2017-06-25T09:05:35.073Z,1160
2017-06-25T09:06:36.306Z,1255
2017-06-25T09:07:37.621Z,1400
2017-06-25T09:08:38.940Z,2410
2017-06-25T09:09:40.211Z,3590
2017-06-25T09:10:41.558Z,3735
2017-06-25T09:11:42.803Z,1975
2017-06-25T09:12:44.093Z,1225
2017-06-25T09:13:45.355Z,1035
2017-06-25T09:14:46.638Z,780
2017-06-25T09:15:47.986Z,600
2017-06-25T09:16:49.252Z,470
2017-06-25T09:17:50.533Z,395
2017-06-25T09:18:51.788Z,365
2017-06-25T09:19:53.112Z,295
2017-06-25T09:20:54.369Z,305
2017-06-25T09:21:55.667Z,240
2017-06-25T09:22:56.972Z,225
2017-06-25T09:23:58.239Z,280
2017-06-25T09:24:59.505Z,315
2017-06-25T09:26:00.785Z,185
2017-06-25T09:27:02.133Z,165
2017-06-25T09:28:03.370Z,150
2017-06-25T09:29:04.670Z,185
2017-06-25T09:30:05.950Z,165
2017-06-25T09:31:07.275Z,180
2017-06-25T09:32:08.569Z,240
2017-06-25T09:33:09.843Z,305
2017-06-25T09:34:11.140Z,335
2017-06-25T09:35:12.392Z,350
2017-06-25T09:36:13.786Z,440
2017-06-25T09:37:15.069Z,500
2017-06-25T09:38:16.378Z,595
2017-06-25T09:39:17.603Z,630
2017-06-25T09:40:18.864Z,660
2017-06-25T09:41:20.123Z,680
2017-06-25T09:42:21.417Z,665
2017-06-25T09:43:22.677Z,665
2017-06-25T09:44:23.964Z,655
2017-06-25T09:45:25.233Z,665
2017-06-25T09:46:26.510Z,740
2017-06-25T09:47:27.787Z,725
2017-06-25T09:48:29.094Z,725
2017-06-25T09:49:30.481Z,715
2017-06-25T09:50:31.734Z,690
2017-06-25T09:51:32.999Z,750
2017-06-25T09:52:34.290Z,770
2017-06-25T09:53:35.551Z,820
2017-06-25T09:54:36.863Z,735
2017-06-25T09:55:38.166Z,670
2017-06-25T09:56:39.414Z,570
2017-06-25T09:57:40.720Z,400
2017-06-25T09:58:41.967Z,330
2017-06-25T09:59:43.264Z,300
2017-06-25T10:00:44.535Z,290
2017-06-25T10:01:45.797Z,270
2017-06-25T10:02:47.127Z,205
2017-06-25T10:03:48.396Z,150
2017-06-25T10:04:49.688Z,150
2017-06-25T10:05:50.954Z,145
2017-06-25T10:06:52.292Z,215
2017-06-25T10:07:53.561Z,200
2017-06-25T10:08:54.807Z,220
2017-06-25T10:09:56.080Z,175
2017-06-25T10:10:57.398Z,125
2017-06-25T10:11:58.693Z,165
2017-06-25T10:12:59.976Z,195
2017-06-25T10:14:01.256Z,255
2017-06-25T10:15:02.534Z,275
2017-06-25T10:16:03.780Z,255
2017-06-25T10:17:05.030Z,360
2017-06-25T10:18:06.398Z,355
2017-06-25T10:19:07.679Z,270
2017-06-25T10:20:08.932Z,185
2017-06-25T10:21:10.191Z,185
2017-06-25T10:22:11.515Z,205
2017-06-25T10:23:12.844Z,240
2017-06-25T10:24:14.104Z,230
2017-06-25T10:25:15.344Z,230
2017-06-25T10:26:16.624Z,255
2017-06-25T10:27:17.926Z,255
2017-06-25T10:28:19.179Z,295
2017-06-25T10:29:20.423Z,325
2017-06-25T10:30:21.805Z,355
2017-06-25T10:31:23.078Z,370
2017-06-25T10:32:24.340Z,400
2017-06-25T10:33:25.614Z,375
2017-06-25T10:34:26.932Z,360
2017-06-25T10:35:28.211Z,410
2017-06-25T10:36:29.480Z,395
2017-06-25T10:37:30.748Z,370
2017-06-25T10:38:32.038Z,340
2017-06-25T10:39:33.304Z,335
2017-06-25T10:40:34.562Z,345
2017-06-25T10:41:35.850Z,355
2017-06-25T10:42:37.229Z,350
2017-06-25T10:43:38.514Z,335
2017-06-25T10:44:39.796Z,325
2017-06-25T10:45:41.101Z,335
2017-06-25T10:46:42.416Z,330
2017-06-25T10:47:43.640Z,330
2017-06-25T10:48:44.895Z,320
2017-06-25T10:49:46.199Z,315
2017-06-25T10:50:47.519Z,315
2017-06-25T10:51:48.782Z,325
2017-06-25T10:52:50.002Z,350
2017-06-25T10:53:51.289Z,385
2017-06-25T10:54:52.503Z,425
2017-06-25T10:55:53.824Z,480
2017-06-25T10:56:55.083Z,550
2017-06-25T10:57:56.422Z,590
2017-06-25T10:58:57.754Z,595
2017-06-25T10:59:59.043Z,490
2017-06-25T11:01:00.289Z,460
2017-06-25T11:02:01.560Z,445
2017-06-25T11:03:02.861Z,410
2017-06-25T11:04:04.240Z,395
2017-06-25T11:05:05.529Z,380
2017-06-25T11:06:06.804Z,380
2017-06-25T11:07:08.058Z,395
2017-06-25T11:08:09.330Z,405
2017-06-25T11:09:10.623Z,410
2017-06-25T11:10:11.914Z,515
2017-06-25T11:11:13.200Z,545
2017-06-25T11:12:14.458Z,590
2017-06-25T11:13:15.750Z,600
2017-06-25T11:14:17.016Z,610
2017-06-25T11:15:18.328Z,655
2017-06-25T11:16:19.596Z,660
2017-06-25T11:17:20.890Z,695
2017-06-25T11:18:22.165Z,670
2017-06-25T11:19:23.511Z,620
2017-06-25T11:20:24.750Z,590
2017-06-25T11:21:26.035Z,615
2017-06-25T11:22:27.296Z,700
2017-06-25T11:23:28.600Z,715
2017-06-25T11:24:29.978Z,760
2017-06-25T11:25:31.218Z,795
2017-06-25T11:26:32.482Z,840
2017-06-25T11:27:33.719Z,900
2017-06-25T11:28:35.036Z,870
2017-06-25T11:29:36.365Z,820
2017-06-25T11:30:37.672Z,770
2017-06-25T11:31:38.949Z,750
2017-06-25T11:32:40.273Z,680
2017-06-25T11:33:41.523Z,780
2017-06-25T11:34:42.781Z,915
2017-06-25T11:35:44.046Z,1025
2017-06-25T11:36:45.327Z,1015
2017-06-25T11:37:46.572Z,975
2017-06-25T11:38:47.851Z,980
2017-06-25T11:39:49.120Z,1015
2017-06-25T11:40:50.466Z,1030
2017-06-25T11:41:51.755Z,1035
2017-06-25T11:42:53.061Z,1005
2017-06-25T11:43:54.320Z,940
2017-06-25T11:44:55.671Z,870
2017-06-25T11:45:56.952Z,705
2017-06-25T11:46:58.379Z,600
2017-06-25T11:47:59.620Z,590
2017-06-25T11:49:00.889Z,675
2017-06-25T11:50:02.168Z,665
2017-06-25T11:51:03.401Z,545
2017-06-25T11:52:04.666Z,435
2017-06-25T11:53:05.928Z,505
2017-06-25T11:54:07.186Z,595
2017-06-25T11:55:08.459Z,490
2017-06-25T11:56:09.866Z,380
2017-06-25T11:57:11.159Z,300
2017-06-25T11:58:12.407Z,255
2017-06-25T11:59:13.708Z,250
2017-06-25T12:00:14.997Z,280
2017-06-25T12:01:16.253Z,305
2017-06-25T12:02:17.546Z,380
2017-06-25T12:03:18.850Z,445
2017-06-25T12:04:20.156Z,505
2017-06-25T12:05:21.423Z,500
2017-06-25T12:06:22.648Z,435
2017-06-25T12:07:23.995Z,395
2017-06-25T12:08:25.265Z,415
2017-06-25T12:09:26.537Z,415
2017-06-25T12:10:28.178Z,420
2017-06-25T12:11:29.510Z,415
2017-06-25T12:12:30.728Z,410
2017-06-25T12:13:32.003Z,425
2017-06-25T12:14:33.240Z,475
2017-06-25T12:15:34.505Z,535
2017-06-25T12:16:35.856Z,535
2017-06-25T12:17:37.135Z,450
2017-06-25T12:18:38.474Z,400
2017-06-25T12:19:39.723Z,370
2017-06-25T12:20:41.011Z,410
2017-06-25T12:21:42.287Z,485
2017-06-25T12:22:43.871Z,545
2017-06-25T12:23:45.220Z,625
2017-06-25T12:24:46.473Z,645
2017-06-25T12:25:47.882Z,675
2017-06-25T12:26:49.197Z,715
2017-06-25T12:27:50.442Z,685
2017-06-25T12:28:51.764Z,655
2017-06-25T12:29:53.051Z,605
2017-06-25T12:30:54.319Z,565
2017-06-25T12:31:55.718Z,520
2017-06-25T12:32:56.933Z,505
2017-06-25T12:33:58.250Z,495
2017-06-25T12:34:59.459Z,500
2017-06-25T12:36:00.800Z,495
2017-06-25T12:37:02.002Z,415
2017-06-25T12:38:03.304Z,400
2017-06-25T12:39:04.535Z,395
2017-06-25T12:40:05.818Z,360
2017-06-25T12:41:07.166Z,360
2017-06-25T12:42:08.432Z,425
2017-06-25T12:43:09.691Z,430
2017-06-25T12:44:10.961Z,460
2017-06-25T12:45:12.267Z,525
2017-06-25T12:46:13.588Z,535
2017-06-25T12:47:14.924Z,545
2017-06-25T12:48:16.173Z,520
2017-06-25T12:49:17.486Z,500
2017-06-25T12:50:18.752Z,470
2017-06-25T12:51:20.057Z,435
2017-06-25T12:52:21.321Z,410
2017-06-25T12:53:22.662Z,350
2017-06-25T12:54:24.133Z,280
2017-06-25T12:55:25.397Z,270
2017-06-25T12:56:26.637Z,255
2017-06-25T12:57:27.937Z,215
2017-06-25T12:58:29.197Z,170
2017-06-25T12:59:30.480Z,190
2017-06-25T13:00:31.741Z,215
2017-06-25T13:01:33.005Z,230
2017-06-25T13:02:34.310Z,235
2017-06-25T13:03:35.607Z,195
2017-06-25T13:04:36.872Z,140
2017-06-25T13:05:38.120Z,115
2017-06-25T13:06:39.476Z,105
2017-06-25T13:07:40.781Z,150
2017-06-25T13:08:42.058Z,210
2017-06-25T13:09:43.550Z,255
2017-06-25T13:10:44.806Z,270
2017-06-25T13:11:46.108Z,265
2017-06-25T13:12:47.414Z,265
2017-06-25T13:13:48.666Z,255
2017-06-25T13:14:49.935Z,275
2017-06-25T13:15:51.190Z,300
2017-06-25T13:16:52.492Z,305
2017-06-25T13:17:53.752Z,310
2017-06-25T13:18:55.016Z,300
2017-06-25T13:19:56.265Z,310
2017-06-25T13:20:57.531Z,345
2017-06-25T13:21:58.889Z,385
2017-06-25T13:23:00.162Z,395
2017-06-25T13:24:01.482Z,365
2017-06-25T13:25:02.744Z,340
2017-06-25T13:26:04.013Z,305
2017-06-25T13:27:05.291Z,265
2017-06-25T13:28:06.606Z,255
2017-06-25T13:29:07.909Z,280
2017-06-25T13:30:09.211Z,320
2017-06-25T13:31:10.543Z,355
2017-06-25T13:32:11.874Z,415
2017-06-25T13:33:13.239Z,455
2017-06-25T13:34:14.512Z,445
2017-06-25T13:35:15.787Z,480
2017-06-25T13:36:17.056Z,510
2017-06-25T13:37:18.333Z,595
2017-06-25T13:38:19.646Z,675
2017-06-25T13:39:20.919Z,640
2017-06-25T13:40:22.170Z,625
2017-06-25T13:41:23.482Z,585
2017-06-25T13:42:24.763Z,535
2017-06-25T13:43:26.014Z,485
2017-06-25T13:44:27.369Z,535
2017-06-25T13:45:28.658Z,500
2017-06-25T13:46:29.962Z,375
2017-06-25T13:47:31.235Z,245
2017-06-25T13:48:32.497Z,205
2017-06-25T13:49:33.854Z,175
2017-06-25T13:50:35.187Z,140
2017-06-25T13:51:36.441Z,140
2017-06-25T13:52:37.725Z,160
2017-06-25T13:53:38.979Z,220
2017-06-25T13:54:40.227Z,190
2017-06-25T13:55:41.540Z,220
2017-06-25T13:56:42.789Z,210
2017-06-25T13:57:44.064Z,215
2017-06-25T13:58:45.375Z,240
2017-06-25T13:59:46.640Z,290
2017-06-25T14:00:47.954Z,320
2017-06-25T14:01:49.204Z,335
2017-06-25T14:02:50.546Z,245
2017-06-25T14:03:51.808Z,205
2017-06-25T14:04:53.050Z,255
2017-06-25T14:05:54.352Z,230
2017-06-25T14:06:55.651Z,260
2017-06-25T14:07:57.049Z,290
2017-06-25T14:08:58.338Z,390
2017-06-25T14:09:59.629Z,395
2017-06-25T14:11:00.855Z,365
2017-06-25T14:12:02.154Z,440
2017-06-25T14:13:03.431Z,485
2017-06-25T14:14:04.734Z,515
2017-06-25T14:15:06.031Z,550
2017-06-25T14:16:07.290Z,510
2017-06-25T14:17:08.584Z,450
2017-06-25T14:18:09.932Z,445
2017-06-25T14:19:11.199Z,405
2017-06-25T14:20:12.502Z,415
2017-06-25T14:21:13.768Z,460
2017-06-25T14:22:15.036Z,540